tititudorancea.com
Station Historical Data
Daily Summary for May 21, 2018 Units:  Metric    English   Both
« Previous Day
Next Day »
Daily Weekly Monthly Yearly Custom
  High: Low: Average:
Temperature: -17.8 °C 11.3 °C 12.1 °C
Dew Point: -17.8 °C 8.7 °C 9.4 °C
Humidity: Humidity % 76 % 83 %
Wind Speed: 0 km/h 8 km/h 18 km/h
Wind Gust: 0 km/h - -
Wind:- - WSW
Pressure: 0 hPa 1021.9 hPa -
Precipitation: 0.51 mm    
Historical Graphs
 
 
Ararat weather Find more about Weather in Ararat, AU


 



 


Tabular Data for May 21, 2018
Time Temperature Dew Point Pressure Wind Wind Speed Wind Gust Humidity Rainfall Rate (Hourly)
-17.8 °C -17.8 °C 0 hPa Calm     Humidity % 0 mm
13:03 13.9 °C 9.9 °C 1022.6 hPa WSW 12.9 km/h 19.3 km/h 77 % 0 mm
13:05 13.8 °C 9.9 °C 1022.6 hPa WSW 24.1 km/h 24.1 km/h 77 % 0 mm
13:08 13.7 °C 9.8 °C 1022.6 hPa WSW 24.1 km/h 24.1 km/h 77 % 0 mm
13:13 13.7 °C 9.7 °C 1022.2 hPa WSW 27.8 km/h 27.8 km/h 77 % 0 mm
13:18 13.6 °C 9.6 °C 1022.2 hPa West 24.1 km/h 24.1 km/h 77 % 0 mm
13:23 13.7 °C 9.9 °C 1022.2 hPa WSW 20.9 km/h 20.9 km/h 78 % 0 mm
13:28 13.8 °C 10.1 °C 1022.2 hPa WSW 14.8 km/h 14.8 km/h 78 % 0 mm
13:33 13.9 °C 10 °C 1022.2 hPa WSW 22.2 km/h 22.2 km/h 77 % 0 mm
13:38 13.9 °C 9.9 °C 1022.2 hPa SW 22.2 km/h 22.2 km/h 77 % 0 mm
13:39 13.9 °C 9.9 °C 1022.2 hPa WSW 22.2 km/h 22.2 km/h 77 % 0 mm
13:44 13.9 °C 10 °C 1022.2 hPa WSW 18.5 km/h 18.5 km/h 77 % 0 mm
13:49 14.1 °C 10.1 °C 1022.2 hPa SW 20.9 km/h 20.9 km/h 77 % 0 mm
13:54 14.4 °C 10.7 °C 1022.2 hPa North 13 km/h 13 km/h 78 % 0 mm
13:59 14.3 °C 10.2 °C 1022.2 hPa WSW 29.6 km/h 29.6 km/h 76 % 0 mm
14:04 14.2 °C 10.2 °C 1022.2 hPa WSW 20.4 km/h 20.4 km/h 77 % 0 mm
14:09 14.1 °C 10.3 °C 1022.2 hPa WSW 24.1 km/h 24.1 km/h 78 % 0 mm
14:14 13.9 °C 10.1 °C 1021.9 hPa SW 29.6 km/h 29.6 km/h 78 % 0 mm
14:19 13.9 °C 10.1 °C 1021.9 hPa West 31.5 km/h 31.5 km/h 78 % 0 mm
14:24 13.8 °C 9.9 °C 1021.9 hPa WSW 29.6 km/h 29.6 km/h 77 % 0 mm
14:29 13.9 °C 10 °C 1021.9 hPa North 27.8 km/h 27.8 km/h 77 % 0 mm
14:34 14 °C 10.1 °C 1021.9 hPa North 31.5 km/h 31.5 km/h 77 % 0 mm
14:39 14.1 °C 10.1 °C 1022.2 hPa WSW 22.2 km/h 22.2 km/h 77 % 0 mm
14:44 13.8 °C 9.9 °C 1022.2 hPa West 24.1 km/h 24.1 km/h 77 % 0 mm
14:49 13.7 °C 10.2 °C 1022.2 hPa North 20.4 km/h 20.4 km/h 79 % 0 mm
14:54 13.7 °C 10.1 °C 1022.2 hPa SW 24.1 km/h 24.1 km/h 79 % 0 mm
14:59 13.6 °C 10.2 °C 1022.2 hPa SW 16.1 km/h 16.1 km/h 80 % 0 mm
15:04 13.6 °C 10.3 °C 1022.2 hPa North 18.5 km/h 18.5 km/h 81 % 0 mm
15:09 13.4 °C 10.2 °C 1022.2 hPa WSW 25.9 km/h 25.9 km/h 81 % 0 mm
15:14 13.2 °C 10.3 °C 1022.2 hPa SW 16.7 km/h 16.7 km/h 83 % 0 mm
15:19 13.1 °C 10.4 °C 1022.2 hPa SW 18.5 km/h 18.5 km/h 84 % 0 mm
15:24 13.1 °C 10.2 °C 1022.2 hPa WSW 25.9 km/h 25.9 km/h 83 % 0 mm
15:29 13.3 °C 10.3 °C 1022.2 hPa WSW 22.2 km/h 22.2 km/h 82 % 0 mm
15:34 13.3 °C 10.2 °C 1022.2 hPa SW 20.4 km/h 20.4 km/h 81 % 0 mm
15:39 13.3 °C 9.9 °C 1022.2 hPa WSW 14.8 km/h 14.8 km/h 80 % 0 mm
15:44 13.3 °C 9.9 °C 1022.2 hPa West 18.5 km/h 18.5 km/h 80 % 0 mm
15:49 13.2 °C 9.8 °C 1022.6 hPa SW 22.2 km/h 22.2 km/h 80 % 0 mm
15:54 13.1 °C 9.9 °C 1022.6 hPa WSW 18.5 km/h 18.5 km/h 81 % 0 mm
15:59 12.9 °C 9.9 °C 1022.6 hPa WSW 27.8 km/h 27.8 km/h 82 % 0 mm
16:04 12.7 °C 10.1 °C 1022.6 hPa SSW 14.8 km/h 14.8 km/h 84 % 0 mm
16:09 12.4 °C 10.2 °C 1022.6 hPa SSW 14.8 km/h 14.8 km/h 86 % 0 mm
16:14 12.2 °C 10.2 °C 1022.6 hPa North 18.5 km/h 18.5 km/h 88 % 0.25 mm
16:19 12 °C 10.2 °C 1022.6 hPa SW 16.7 km/h 16.7 km/h 89 % 0.25 mm
16:24 11.9 °C 10.1 °C 1022.6 hPa SSW 18.5 km/h 18.5 km/h 89 % 0.25 mm
16:29 11.8 °C 10.1 °C 1022.9 hPa SSW 20.4 km/h 20.4 km/h 89 % 0.25 mm
16:34 11.8 °C 10.1 °C 1022.9 hPa North 18.5 km/h 18.5 km/h 89 % 0.25 mm
16:39 11.8 °C 9.9 °C 1022.9 hPa SW 13 km/h 13 km/h 88 % 0.25 mm
16:44 11.9 °C 9.8 °C 1022.9 hPa SW 25.9 km/h 25.9 km/h 87 % 0.25 mm
16:49 11.9 °C 9.8 °C 1022.9 hPa North 24.1 km/h 24.1 km/h 87 % 0.25 mm
16:54 11.9 °C 9.8 °C 1022.9 hPa SW 22.2 km/h 22.2 km/h 87 % 0.25 mm
16:59 11.9 °C 9.6 °C 1022.9 hPa West 27.8 km/h 27.8 km/h 86 % 0.25 mm
17:04 11.9 °C 9.4 °C 1023.2 hPa SW 22.2 km/h 22.2 km/h 85 % 0.25 mm
17:09 11.8 °C 9.4 °C 1023.2 hPa North 11.1 km/h 11.1 km/h 85 % 0.25 mm
17:14 11.8 °C 9.4 °C 1023.2 hPa SW 18.5 km/h 18.5 km/h 85 % 0 mm
17:19 11.8 °C 9.4 °C 1023.2 hPa SW 14.5 km/h 14.5 km/h 85 % 0 mm
17:24 11.8 °C 9.3 °C 1023.2 hPa SW 14.8 km/h 14.8 km/h 85 % 0 mm
17:29 11.8 °C 9.3 °C 1023.2 hPa SW 9.3 km/h 9.3 km/h 85 % 0 mm
17:34 11.8 °C 9.3 °C 1023.2 hPa SW 13 km/h 13 km/h 85 % 0 mm
17:39 11.8 °C 9.3 °C 1023.6 hPa West 25.9 km/h 25.9 km/h 85 % 0 mm
17:44 11.7 °C 9.3 °C 1023.6 hPa WSW 14.8 km/h 14.8 km/h 85 % 0 mm
17:49 11.7 °C 9.4 °C 1023.6 hPa SW 13 km/h 13 km/h 86 % 0 mm
17:54 11.5 °C 9.4 °C 1023.6 hPa SW 14.8 km/h 14.8 km/h 87 % 0 mm
17:59 11.4 °C 9.4 °C 1023.6 hPa SW 16.1 km/h 16.1 km/h 88 % 0 mm
18:04 11.3 °C 9.4 °C 1023.6 hPa SW 16.7 km/h 16.7 km/h 88 % 0 mm
18:09 11.3 °C 9.2 °C 1023.6 hPa SW 18.5 km/h 18.5 km/h 87 % 0 mm
18:14 11.4 °C 9.3 °C 1023.9 hPa SW 13 km/h 13 km/h 87 % 0 mm
18:19 11.4 °C 9.1 °C 1023.9 hPa SW 11.1 km/h 11.1 km/h 86 % 0 mm
18:24 11.4 °C 9.1 °C 1023.9 hPa SW 16.7 km/h 16.7 km/h 86 % 0 mm
18:29 11.4 °C 9 °C 1023.9 hPa SW 16.7 km/h 16.7 km/h 85 % 0 mm
18:34 11.5 °C 9.1 °C 1023.9 hPa SW 11.3 km/h 11.3 km/h 85 % 0 mm
18:39 11.6 °C 8.9 °C 1023.9 hPa SW 13 km/h 13 km/h 84 % 0 mm
18:44 11.6 °C 8.8 °C 1023.9 hPa SW 14.8 km/h 14.8 km/h 83 % 0 mm
18:49 11.7 °C 8.7 °C 1023.9 hPa WSW 20.4 km/h 20.4 km/h 82 % 0 mm
18:54 11.7 °C 8.7 °C 1023.6 hPa WSW 18.5 km/h 18.5 km/h 82 % 0 mm
18:59 11.7 °C 8.7 °C 1023.6 hPa WSW 20.4 km/h 20.4 km/h 82 % 0 mm
19:04 11.7 °C 8.7 °C 1023.9 hPa WSW 16.1 km/h 16.1 km/h 82 % 0 mm
19:09 11.7 °C 8.7 °C 1023.9 hPa WSW 18.5 km/h 18.5 km/h 82 % 0 mm
19:14 11.8 °C 9 °C 1023.9 hPa WSW 11.3 km/h 11.3 km/h 83 % 0 mm
19:19 11.8 °C 9 °C 1023.9 hPa SW 11.1 km/h 11.1 km/h 83 % 0 mm
19:24 11.8 °C 9 °C 1023.9 hPa SW 14.8 km/h 14.8 km/h 83 % 0 mm
19:29 11.8 °C 9 °C 1023.9 hPa WSW 11.1 km/h 11.1 km/h 83 % 0 mm
19:34 11.8 °C 9.2 °C 1024.3 hPa WSW 14.8 km/h 14.8 km/h 84 % 0 mm
19:39 11.8 °C 9.2 °C 1024.3 hPa WSW 13 km/h 13 km/h 84 % 0 mm
19:44 11.7 °C 9.1 °C 1024.3 hPa SW 14.8 km/h 14.8 km/h 84 % 0 mm
19:49 11.7 °C 9.2 °C 1024.3 hPa WSW 9.3 km/h 9.3 km/h 85 % 0 mm
19:54 11.7 °C 9.2 °C 1024.3 hPa SW 14.8 km/h 14.8 km/h 85 % 0 mm
19:59 11.7 °C 9.2 °C 1024.3 hPa WSW 11.1 km/h 11.1 km/h 85 % 0 mm
20:04 11.7 °C 9.2 °C 1024.3 hPa SW 14.5 km/h 14.5 km/h 85 % 0 mm
20:09 11.7 °C 9.2 °C 1024.3 hPa SW 9.7 km/h 9.7 km/h 85 % 0 mm
20:14 11.7 °C 9.3 °C 1024.3 hPa SW 18.5 km/h 18.5 km/h 85 % 0 mm
20:19 11.7 °C 9.3 °C 1024.3 hPa SW 18.5 km/h 18.5 km/h 85 % 0 mm
20:24 11.8 °C 9.3 °C 1024.3 hPa SW 18.5 km/h 18.5 km/h 85 % 0 mm
20:29 11.8 °C 9.3 °C 1024.3 hPa North 13 km/h 13 km/h 85 % 0 mm
20:34 11.7 °C 9.3 °C 1023.9 hPa SW 22.2 km/h 22.2 km/h 85 % 0 mm
20:39 11.7 °C 9.3 °C 1023.9 hPa SW 13 km/h 13 km/h 85 % 0 mm
20:44 11.8 °C 9.3 °C 1023.9 hPa WSW 25.7 km/h 25.7 km/h 85 % 0 mm
20:49 11.8 °C 9.4 °C 1023.9 hPa SW 18.5 km/h 18.5 km/h 85 % 0 mm
20:54 11.9 °C 9.3 °C 1023.9 hPa WSW 20.4 km/h 20.4 km/h 84 % 0 mm
20:59 11.9 °C 9.3 °C 1024.3 hPa WSW 18.5 km/h 18.5 km/h 84 % 0 mm
21:05 11.9 °C 9.3 °C 1024.3 hPa SW 18.5 km/h 18.5 km/h 84 % 0 mm
21:09 12 °C 9.4 °C 1024.3 hPa SW 16.7 km/h 18.2 km/h 84 % 0 mm
21:14 12 °C 9.4 °C 1024.3 hPa SW 18.5 km/h 18.5 km/h 84 % 0 mm
21:19 11.9 °C 9.5 °C 1024.3 hPa SW 14.8 km/h 14.8 km/h 85 % 0 mm
21:24 11.8 °C 9.3 °C 1024.3 hPa WSW 20.4 km/h 20.4 km/h 85 % 0 mm
21:29 11.8 °C 9.3 °C 1024.3 hPa SW 18.5 km/h 18.5 km/h 85 % 0 mm
21:34 11.7 °C 9.4 °C 1023.9 hPa SW 14.8 km/h 14.8 km/h 86 % 0 mm
21:40 11.7 °C 9.4 °C 1023.9 hPa SSW 14.8 km/h 14.8 km/h 86 % 0 mm
21:45 11.7 °C 9.4 °C 1024.3 hPa SW 20.4 km/h 20.4 km/h 86 % 0 mm
21:50 11.8 °C 9.5 °C 1023.9 hPa WSW 18.5 km/h 18.5 km/h 86 % 0 mm
21:55 11.8 °C 9.5 °C 1023.9 hPa SW 11.3 km/h 11.3 km/h 86 % 0 mm
22:00 11.8 °C 9.6 °C 1023.9 hPa WSW 13 km/h 13 km/h 86 % 0 mm
22:05 11.9 °C 9.5 °C 1023.9 hPa WSW 22.2 km/h 22.2 km/h 85 % 0 mm
22:10 11.9 °C 9.5 °C 1023.9 hPa WSW 18.5 km/h 18.5 km/h 85 % 0 mm
22:15 11.9 °C 9.4 °C 1023.9 hPa WSW 9.7 km/h 19.3 km/h 85 % 0 mm
22:20 11.8 °C 9.4 °C 1023.9 hPa WSW 11.3 km/h 19.3 km/h 85 % 0 mm
22:25 11.8 °C 9.3 °C 1024.3 hPa WSW 8 km/h 8 km/h 85 % 0 mm
22:30 11.8 °C 9.3 °C 1024.3 hPa SW 18.5 km/h 18.5 km/h 85 % 0 mm
22:35 11.7 °C 9.3 °C 1024.3 hPa WSW 18.5 km/h 18.5 km/h 85 % 0 mm
22:40 11.8 °C 9.3 °C 1024.3 hPa SW 16.7 km/h 16.7 km/h 85 % 0 mm
22:45 11.9 °C 9.4 °C 1023.9 hPa SW 14.8 km/h 14.8 km/h 85 % 0 mm
22:50 11.9 °C 9.5 °C 1023.9 hPa WSW 18.5 km/h 18.5 km/h 85 % 0 mm
22:55 11.9 °C 9.3 °C 1023.9 hPa WSW 18.5 km/h 18.5 km/h 84 % 0 mm
23:00 12 °C 9.4 °C 1023.9 hPa WSW 27.8 km/h 27.8 km/h 84 % 0 mm
23:05 12.1 °C 9.4 °C 1023.9 hPa WSW 11.1 km/h 11.1 km/h 84 % 0 mm
23:10 12.1 °C 9.4 °C 1023.6 hPa SW 11.1 km/h 11.1 km/h 84 % 0 mm
23:15 12.1 °C 9.6 °C 1023.6 hPa North 11.1 km/h 11.1 km/h 85 % 0 mm
23:20 12.1 °C 9.5 °C 1023.9 hPa WSW 20.4 km/h 20.4 km/h 84 % 0 mm
23:25 12.1 °C 9.5 °C 1023.6 hPa SW 16.7 km/h 16.7 km/h 84 % 0 mm
23:26 12.1 °C 9.5 °C 1023.9 hPa SW 16.7 km/h 16.7 km/h 84 % 0 mm
23:31 12.1 °C 9.4 °C 1023.6 hPa WSW 16.7 km/h 16.7 km/h 84 % 0 mm
23:36 12.1 °C 9.5 °C 1023.6 hPa WSW 16.7 km/h 16.7 km/h 84 % 0 mm
23:41 12.2 °C 9.6 °C 1023.6 hPa SSW 13 km/h 13 km/h 84 % 0 mm
23:46 12.1 °C 9.5 °C 1023.6 hPa WSW 18.5 km/h 18.5 km/h 84 % 0 mm
23:51 12.1 °C 9.5 °C 1023.6 hPa SW 20.4 km/h 20.4 km/h 84 % 0 mm
23:56 12.1 °C 9.5 °C 1023.6 hPa SSW 19.3 km/h 19.3 km/h 84 % 0 mm
Ararat Weather
Compliments of Weather Underground - 1.5 mb
Click here to send mail.


ABOUT

Live weather data from Ararat, Victoria, Australia, 3377
Data uploaded from Cumulus every 5 minutes to Weather Underground.
This site then downloads the raw data for formatting and display.
Metric and imperial data can be displayed. Graphs and historical data available.
Includes Sun and Moon times and rain image live from BOM.

Check out Ararat Weather on Facebook, Twitter and Google +

Help support ongoing costs by checking out the ads





Follow @AraratWeather